sensor_id;sensor_type;location;lat;lon;timestamp;P1;durP1;ratioP1;P2;durP2;ratioP2
68225;SDS011;55045;49.410;11.030;2023-04-23T00:02:01;6.18;;;4.00;;
68225;SDS011;55045;49.410;11.030;2023-04-23T00:05:09;8.52;;;4.18;;
68225;SDS011;55045;49.410;11.030;2023-04-23T00:08:17;6.65;;;4.05;;
68225;SDS011;55045;49.410;11.030;2023-04-23T00:11:21;4.80;;;3.60;;
68225;SDS011;55045;49.410;11.030;2023-04-23T00:14:24;4.32;;;3.55;;
68225;SDS011;55045;49.410;11.030;2023-04-23T00:17:28;6.07;;;4.20;;
68225;SDS011;55045;49.410;11.030;2023-04-23T00:20:31;4.93;;;3.85;;
68225;SDS011;55045;49.410;11.030;2023-04-23T00:23:36;6.68;;;4.35;;
68225;SDS011;55045;49.410;11.030;2023-04-23T00:26:40;5.72;;;4.00;;
68225;SDS011;55045;49.410;11.030;2023-04-23T00:29:43;4.50;;;3.92;;
68225;SDS011;55045;49.410;11.030;2023-04-23T00:32:47;5.93;;;4.13;;
68225;SDS011;55045;49.410;11.030;2023-04-23T00:35:50;4.78;;;4.13;;
68225;SDS011;55045;49.410;11.030;2023-04-23T00:38:55;5.07;;;4.00;;
68225;SDS011;55045;49.410;11.030;2023-04-23T00:41:58;5.90;;;3.78;;
68225;SDS011;55045;49.410;11.030;2023-04-23T00:45:07;5.72;;;4.05;;
68225;SDS011;55045;49.410;11.030;2023-04-23T00:48:11;7.50;;;4.22;;
68225;SDS011;55045;49.410;11.030;2023-04-23T00:51:15;5.90;;;4.25;;
68225;SDS011;55045;49.410;11.030;2023-04-23T00:54:20;6.47;;;3.92;;
68225;SDS011;55045;49.410;11.030;2023-04-23T00:57:24;6.75;;;3.90;;
68225;SDS011;55045;49.410;11.030;2023-04-23T01:00:29;4.63;;;3.75;;
68225;SDS011;55045;49.410;11.030;2023-04-23T01:03:33;6.57;;;3.90;;
68225;SDS011;55045;49.410;11.030;2023-04-23T01:06:38;3.83;;;3.30;;
68225;SDS011;55045;49.410;11.030;2023-04-23T01:09:44;5.50;;;4.10;;
68225;SDS011;55045;49.410;11.030;2023-04-23T01:12:48;6.53;;;4.43;;
68225;SDS011;55045;49.410;11.030;2023-04-23T01:15:52;6.72;;;4.50;;
68225;SDS011;55045;49.410;11.030;2023-04-23T01:18:55;8.82;;;4.47;;
68225;SDS011;55045;49.410;11.030;2023-04-23T01:22:00;6.05;;;3.70;;
68225;SDS011;55045;49.410;11.030;2023-04-23T01:25:05;4.50;;;3.33;;
68225;SDS011;55045;49.410;11.030;2023-04-23T01:28:11;5.47;;;4.15;;
68225;SDS011;55045;49.410;11.030;2023-04-23T01:31:14;4.40;;;4.00;;
68225;SDS011;55045;49.410;11.030;2023-04-23T01:34:18;6.32;;;4.40;;
68225;SDS011;55045;49.410;11.030;2023-04-23T01:37:23;5.85;;;4.50;;
68225;SDS011;55045;49.410;11.030;2023-04-23T01:40:28;6.90;;;4.65;;
68225;SDS011;55045;49.410;11.030;2023-04-23T01:43:32;6.25;;;3.95;;
68225;SDS011;55045;49.410;11.030;2023-04-23T01:46:35;6.47;;;4.10;;
68225;SDS011;55045;49.410;11.030;2023-04-23T01:49:39;7.15;;;4.38;;
68225;SDS011;55045;49.410;11.030;2023-04-23T01:52:42;5.70;;;4.00;;
68225;SDS011;55045;49.410;11.030;2023-04-23T01:55:48;7.97;;;4.13;;
68225;SDS011;55045;49.410;11.030;2023-04-23T01:58:53;5.13;;;4.22;;
68225;SDS011;55045;49.410;11.030;2023-04-23T02:01:57;7.95;;;4.20;;
68225;SDS011;55045;49.410;11.030;2023-04-23T02:05:00;6.18;;;4.13;;
68225;SDS011;55045;49.410;11.030;2023-04-23T02:08:05;8.27;;;4.53;;
68225;SDS011;55045;49.410;11.030;2023-04-23T02:11:10;5.53;;;4.90;;
68225;SDS011;55045;49.410;11.030;2023-04-23T02:14:13;7.25;;;4.30;;
68225;SDS011;55045;49.410;11.030;2023-04-23T02:17:17;4.55;;;4.05;;
68225;SDS011;55045;49.410;11.030;2023-04-23T02:20:21;7.72;;;4.50;;
68225;SDS011;55045;49.410;11.030;2023-04-23T02:23:24;5.13;;;4.35;;
68225;SDS011;55045;49.410;11.030;2023-04-23T02:26:29;6.88;;;4.18;;
68225;SDS011;55045;49.410;11.030;2023-04-23T02:29:32;5.63;;;4.07;;
68225;SDS011;55045;49.410;11.030;2023-04-23T02:32:35;7.72;;;4.32;;
68225;SDS011;55045;49.410;11.030;2023-04-23T02:35:39;5.65;;;3.85;;
68225;SDS011;55045;49.410;11.030;2023-04-23T02:38:43;9.18;;;4.22;;
68225;SDS011;55045;49.410;11.030;2023-04-23T02:41:49;4.95;;;4.15;;
68225;SDS011;55045;49.410;11.030;2023-04-23T02:44:53;5.57;;;3.85;;
68225;SDS011;55045;49.410;11.030;2023-04-23T02:47:56;8.48;;;4.22;;
68225;SDS011;55045;49.410;11.030;2023-04-23T02:50:59;4.50;;;3.88;;
68225;SDS011;55045;49.410;11.030;2023-04-23T02:54:03;4.75;;;3.97;;
68225;SDS011;55045;49.410;11.030;2023-04-23T02:57:09;7.03;;;4.20;;
68225;SDS011;55045;49.410;11.030;2023-04-23T03:00:15;5.32;;;4.13;;
68225;SDS011;55045;49.410;11.030;2023-04-23T03:03:18;8.27;;;4.10;;
68225;SDS011;55045;49.410;11.030;2023-04-23T03:06:22;5.28;;;4.10;;
68225;SDS011;55045;49.410;11.030;2023-04-23T03:09:25;6.50;;;3.75;;
68225;SDS011;55045;49.410;11.030;2023-04-23T03:12:30;4.63;;;3.75;;
68225;SDS011;55045;49.410;11.030;2023-04-23T03:15:34;6.30;;;3.97;;
68225;SDS011;55045;49.410;11.030;2023-04-23T03:18:37;6.88;;;3.75;;
68225;SDS011;55045;49.410;11.030;2023-04-23T03:21:41;5.80;;;3.50;;
68225;SDS011;55045;49.410;11.030;2023-04-23T03:24:44;4.95;;;3.80;;
68225;SDS011;55045;49.410;11.030;2023-04-23T03:27:49;5.32;;;4.00;;
68225;SDS011;55045;49.410;11.030;2023-04-23T03:34:50;5.90;;;4.25;;
68225;SDS011;55045;49.410;11.030;2023-04-23T03:37:56;9.63;;;4.23;;
68225;SDS011;55045;49.410;11.030;2023-04-23T03:40:59;4.63;;;4.00;;
68225;SDS011;55045;49.410;11.030;2023-04-23T03:44:03;5.75;;;4.30;;
68225;SDS011;55045;49.410;11.030;2023-04-23T03:47:15;5.55;;;4.72;;
68225;SDS011;55045;49.410;11.030;2023-04-23T03:50:20;5.60;;;4.85;;
68225;SDS011;55045;49.410;11.030;2023-04-23T03:53:35;5.13;;;4.60;;
68225;SDS011;55045;49.410;11.030;2023-04-23T03:56:57;7.70;;;5.32;;
68225;SDS011;55045;49.410;11.030;2023-04-23T04:00:03;7.55;;;5.10;;
68225;SDS011;55045;49.410;11.030;2023-04-23T04:03:14;8.45;;;5.07;;
68225;SDS011;55045;49.410;11.030;2023-04-23T04:06:18;7.03;;;5.00;;
68225;SDS011;55045;49.410;11.030;2023-04-23T04:09:22;6.75;;;5.50;;
68225;SDS011;55045;49.410;11.030;2023-04-23T04:12:25;9.75;;;6.03;;
68225;SDS011;55045;49.410;11.030;2023-04-23T04:15:28;7.00;;;5.72;;
68225;SDS011;55045;49.410;11.030;2023-04-23T04:18:33;6.90;;;5.45;;
68225;SDS011;55045;49.410;11.030;2023-04-23T04:21:37;9.20;;;6.75;;
68225;SDS011;55045;49.410;11.030;2023-04-23T04:24:41;9.75;;;5.85;;
68225;SDS011;55045;49.410;11.030;2023-04-23T04:27:44;8.57;;;6.47;;
68225;SDS011;55045;49.410;11.030;2023-04-23T04:30:48;7.97;;;5.55;;
68225;SDS011;55045;49.410;11.030;2023-04-23T04:33:51;8.95;;;6.20;;
68225;SDS011;55045;49.410;11.030;2023-04-23T04:36:57;10.38;;;6.07;;
68225;SDS011;55045;49.410;11.030;2023-04-23T04:40:01;8.18;;;6.68;;
68225;SDS011;55045;49.410;11.030;2023-04-23T04:43:05;8.63;;;6.30;;
68225;SDS011;55045;49.410;11.030;2023-04-23T04:46:08;10.00;;;6.30;;
68225;SDS011;55045;49.410;11.030;2023-04-23T04:49:12;8.35;;;6.22;;
68225;SDS011;55045;49.410;11.030;2023-04-23T04:52:17;8.68;;;6.22;;
68225;SDS011;55045;49.410;11.030;2023-04-23T04:55:20;9.90;;;6.72;;
68225;SDS011;55045;49.410;11.030;2023-04-23T04:58:24;9.65;;;6.13;;
68225;SDS011;55045;49.410;11.030;2023-04-23T05:01:27;8.65;;;5.90;;
68225;SDS011;55045;49.410;11.030;2023-04-23T05:04:31;10.30;;;6.53;;
68225;SDS011;55045;49.410;11.030;2023-04-23T05:07:36;7.90;;;6.15;;
68225;SDS011;55045;49.410;11.030;2023-04-23T05:10:39;8.43;;;6.65;;
68225;SDS011;55045;49.410;11.030;2023-04-23T05:13:42;9.35;;;5.70;;
68225;SDS011;55045;49.410;11.030;2023-04-23T05:16:46;7.75;;;5.82;;
68225;SDS011;55045;49.410;11.030;2023-04-23T05:19:49;9.40;;;6.63;;
68225;SDS011;55045;49.410;11.030;2023-04-23T05:22:54;9.13;;;6.00;;
68225;SDS011;55045;49.410;11.030;2023-04-23T05:25:57;8.35;;;6.70;;
68225;SDS011;55045;49.410;11.030;2023-04-23T05:29:01;10.35;;;5.95;;
68225;SDS011;55045;49.410;11.030;2023-04-23T05:32:05;11.20;;;6.60;;
68225;SDS011;55045;49.410;11.030;2023-04-23T05:35:10;8.13;;;6.10;;
68225;SDS011;55045;49.410;11.030;2023-04-23T05:38:14;9.00;;;5.70;;
68225;SDS011;55045;49.410;11.030;2023-04-23T05:41:17;9.50;;;6.63;;
68225;SDS011;55045;49.410;11.030;2023-04-23T05:44:21;10.65;;;5.97;;
68225;SDS011;55045;49.410;11.030;2023-04-23T05:47:25;9.57;;;6.05;;
68225;SDS011;55045;49.410;11.030;2023-04-23T05:50:28;9.40;;;6.22;;
68225;SDS011;55045;49.410;11.030;2023-04-23T05:53:33;10.27;;;8.00;;
68225;SDS011;55045;49.410;11.030;2023-04-23T05:56:36;9.68;;;7.57;;
68225;SDS011;55045;49.410;11.030;2023-04-23T05:59:39;11.75;;;7.40;;
68225;SDS011;55045;49.410;11.030;2023-04-23T06:02:43;9.32;;;7.35;;
68225;SDS011;55045;49.410;11.030;2023-04-23T06:05:46;10.82;;;7.18;;
68225;SDS011;55045;49.410;11.030;2023-04-23T06:08:51;8.35;;;7.45;;
68225;SDS011;55045;49.410;11.030;2023-04-23T06:11:55;8.65;;;7.07;;
68225;SDS011;55045;49.410;11.030;2023-04-23T06:14:58;13.48;;;8.18;;
68225;SDS011;55045;49.410;11.030;2023-04-23T06:18:01;12.63;;;8.98;;
68225;SDS011;55045;49.410;11.030;2023-04-23T06:21:04;12.73;;;9.15;;
68225;SDS011;55045;49.410;11.030;2023-04-23T06:24:09;11.23;;;8.52;;
68225;SDS011;55045;49.410;11.030;2023-04-23T06:27:12;11.23;;;8.98;;
68225;SDS011;55045;49.410;11.030;2023-04-23T06:30:20;10.60;;;8.00;;
68225;SDS011;55045;49.410;11.030;2023-04-23T06:33:23;14.93;;;8.20;;
68225;SDS011;55045;49.410;11.030;2023-04-23T06:36:27;9.80;;;7.43;;
68225;SDS011;55045;49.410;11.030;2023-04-23T06:39:32;10.57;;;7.55;;
68225;SDS011;55045;49.410;11.030;2023-04-23T06:42:35;10.70;;;7.63;;
68225;SDS011;55045;49.410;11.030;2023-04-23T06:46:04;12.40;;;8.15;;
68225;SDS011;55045;49.410;11.030;2023-04-23T06:49:07;15.63;;;11.85;;
68225;SDS011;55045;49.410;11.030;2023-04-23T06:52:10;12.05;;;9.70;;
68225;SDS011;55045;49.410;11.030;2023-04-23T06:55:15;9.27;;;6.82;;
68225;SDS011;55045;49.410;11.030;2023-04-23T06:58:18;8.80;;;7.20;;
68225;SDS011;55045;49.410;11.030;2023-04-23T07:01:23;10.68;;;9.18;;
68225;SDS011;55045;49.410;11.030;2023-04-23T07:04:26;11.35;;;8.70;;
68225;SDS011;55045;49.410;11.030;2023-04-23T07:07:30;9.98;;;8.90;;
68225;SDS011;55045;49.410;11.030;2023-04-23T07:10:35;10.27;;;8.60;;
68225;SDS011;55045;49.410;11.030;2023-04-23T07:13:38;11.75;;;8.45;;
68225;SDS011;55045;49.410;11.030;2023-04-23T07:16:41;10.82;;;8.65;;
68225;SDS011;55045;49.410;11.030;2023-04-23T07:19:45;10.45;;;8.30;;
68225;SDS011;55045;49.410;11.030;2023-04-23T07:22:48;13.18;;;10.50;;
68225;SDS011;55045;49.410;11.030;2023-04-23T07:25:53;16.40;;;12.18;;
68225;SDS011;55045;49.410;11.030;2023-04-23T07:28:56;14.10;;;12.32;;
68225;SDS011;55045;49.410;11.030;2023-04-23T07:31:59;19.00;;;12.77;;
68225;SDS011;55045;49.410;11.030;2023-04-23T07:35:08;18.83;;;13.57;;
68225;SDS011;55045;49.410;11.030;2023-04-23T07:38:12;17.73;;;12.68;;
68225;SDS011;55045;49.410;11.030;2023-04-23T07:41:16;15.70;;;12.18;;
68225;SDS011;55045;49.410;11.030;2023-04-23T07:44:20;14.18;;;9.68;;
68225;SDS011;55045;49.410;11.030;2023-04-23T07:47:23;14.65;;;10.57;;
68225;SDS011;55045;49.410;11.030;2023-04-23T07:50:26;13.50;;;9.60;;
68225;SDS011;55045;49.410;11.030;2023-04-23T07:53:30;14.20;;;9.23;;
68225;SDS011;55045;49.410;11.030;2023-04-23T07:56:35;13.10;;;9.43;;
68225;SDS011;55045;49.410;11.030;2023-04-23T07:59:38;13.48;;;9.85;;
68225;SDS011;55045;49.410;11.030;2023-04-23T08:02:42;12.13;;;8.88;;
68225;SDS011;55045;49.410;11.030;2023-04-23T08:05:45;11.95;;;8.07;;
68225;SDS011;55045;49.410;11.030;2023-04-23T08:08:49;11.77;;;7.95;;
68225;SDS011;55045;49.410;11.030;2023-04-23T08:11:53;9.30;;;7.38;;
68225;SDS011;55045;49.410;11.030;2023-04-23T08:14:58;9.52;;;6.97;;
68225;SDS011;55045;49.410;11.030;2023-04-23T08:18:08;8.30;;;6.60;;
68225;SDS011;55045;49.410;11.030;2023-04-23T08:21:12;10.80;;;7.45;;
68225;SDS011;55045;49.410;11.030;2023-04-23T08:24:15;11.23;;;8.68;;
68225;SDS011;55045;49.410;11.030;2023-04-23T08:27:20;8.82;;;7.15;;
68225;SDS011;55045;49.410;11.030;2023-04-23T08:30:23;7.72;;;6.70;;
68225;SDS011;55045;49.410;11.030;2023-04-23T08:33:27;10.75;;;6.32;;
68225;SDS011;55045;49.410;11.030;2023-04-23T08:36:30;7.70;;;5.65;;
68225;SDS011;55045;49.410;11.030;2023-04-23T08:39:34;9.15;;;5.78;;
68225;SDS011;55045;49.410;11.030;2023-04-23T08:42:42;8.27;;;5.85;;
68225;SDS011;55045;49.410;11.030;2023-04-23T08:45:49;7.32;;;5.07;;
68225;SDS011;55045;49.410;11.030;2023-04-23T08:48:52;7.43;;;4.93;;
68225;SDS011;55045;49.410;11.030;2023-04-23T08:51:55;8.55;;;5.22;;
68225;SDS011;55045;49.410;11.030;2023-04-23T08:55:06;4.22;;;3.80;;
68225;SDS011;55045;49.410;11.030;2023-04-23T08:58:13;7.07;;;4.55;;
68225;SDS011;55045;49.410;11.030;2023-04-23T09:01:17;5.75;;;3.83;;
68225;SDS011;55045;49.410;11.030;2023-04-23T09:04:20;2.88;;;2.58;;
68225;SDS011;55045;49.410;11.030;2023-04-23T09:07:25;3.13;;;2.75;;
68225;SDS011;55045;49.410;11.030;2023-04-23T09:10:28;3.65;;;2.83;;
68225;SDS011;55045;49.410;11.030;2023-04-23T09:13:33;4.20;;;2.58;;
68225;SDS011;55045;49.410;11.030;2023-04-23T09:16:37;3.25;;;2.00;;
68225;SDS011;55045;49.410;11.030;2023-04-23T09:19:41;3.78;;;1.75;;
68225;SDS011;55045;49.410;11.030;2023-04-23T09:22:49;1.83;;;1.73;;
68225;SDS011;55045;49.410;11.030;2023-04-23T09:25:53;2.03;;;1.83;;
68225;SDS011;55045;49.410;11.030;2023-04-23T09:28:59;1.70;;;1.60;;
68225;SDS011;55045;49.410;11.030;2023-04-23T09:34:50;2.15;;;1.95;;
68225;SDS011;55045;49.410;11.030;2023-04-23T09:37:58;1.60;;;1.50;;
68225;SDS011;55045;49.410;11.030;2023-04-23T09:41:19;2.22;;;2.03;;
68225;SDS011;55045;49.410;11.030;2023-04-23T09:44:23;2.60;;;2.40;;
68225;SDS011;55045;49.410;11.030;2023-04-23T09:47:27;3.40;;;2.63;;
68225;SDS011;55045;49.410;11.030;2023-04-23T09:50:36;4.40;;;2.97;;
68225;SDS011;55045;49.410;11.030;2023-04-23T09:53:40;3.03;;;2.58;;
68225;SDS011;55045;49.410;11.030;2023-04-23T09:56:48;3.85;;;2.50;;
68225;SDS011;55045;49.410;11.030;2023-04-23T09:59:52;2.92;;;2.60;;
68225;SDS011;55045;49.410;11.030;2023-04-23T10:03:14;2.90;;;2.20;;
68225;SDS011;55045;49.410;11.030;2023-04-23T10:06:19;2.78;;;2.50;;
68225;SDS011;55045;49.410;11.030;2023-04-23T10:09:44;6.78;;;2.53;;
68225;SDS011;55045;49.410;11.030;2023-04-23T10:12:49;4.40;;;2.55;;
68225;SDS011;55045;49.410;11.030;2023-04-23T10:15:56;3.25;;;2.40;;
68225;SDS011;55045;49.410;11.030;2023-04-23T10:19:20;3.63;;;2.28;;
68225;SDS011;55045;49.410;11.030;2023-04-23T10:22:26;3.10;;;2.40;;
68225;SDS011;55045;49.410;11.030;2023-04-23T10:25:31;4.43;;;2.45;;
68225;SDS011;55045;49.410;11.030;2023-04-23T10:28:35;10.30;;;9.20;;
68225;SDS011;55045;49.410;11.030;2023-04-23T10:31:41;3.03;;;2.72;;
68225;SDS011;55045;49.410;11.030;2023-04-23T10:34:45;3.00;;;2.38;;
68225;SDS011;55045;49.410;11.030;2023-04-23T10:37:51;3.05;;;2.28;;
68225;SDS011;55045;49.410;11.030;2023-04-23T10:40:55;2.40;;;2.20;;
68225;SDS011;55045;49.410;11.030;2023-04-23T10:44:02;2.75;;;2.20;;
68225;SDS011;55045;49.410;11.030;2023-04-23T10:47:10;2.75;;;2.40;;
68225;SDS011;55045;49.410;11.030;2023-04-23T10:50:16;2.65;;;2.30;;
68225;SDS011;55045;49.410;11.030;2023-04-23T10:53:22;3.10;;;2.47;;
68225;SDS011;55045;49.410;11.030;2023-04-23T10:56:26;3.17;;;2.30;;
68225;SDS011;55045;49.410;11.030;2023-04-23T10:59:31;4.10;;;2.35;;
68225;SDS011;55045;49.410;11.030;2023-04-23T11:02:41;4.85;;;2.50;;
68225;SDS011;55045;49.410;11.030;2023-04-23T11:05:46;3.60;;;2.35;;
68225;SDS011;55045;49.410;11.030;2023-04-23T11:08:51;2.97;;;2.08;;
68225;SDS011;55045;49.410;11.030;2023-04-23T11:11:56;2.78;;;1.80;;
68225;SDS011;55045;49.410;11.030;2023-04-23T11:15:09;1.98;;;1.88;;
68225;SDS011;55045;49.410;11.030;2023-04-23T11:18:13;6.70;;;2.30;;
68225;SDS011;55045;49.410;11.030;2023-04-23T11:21:16;3.60;;;3.00;;
68225;SDS011;55045;49.410;11.030;2023-04-23T11:24:22;2.20;;;2.00;;
68225;SDS011;55045;49.410;11.030;2023-04-23T11:27:25;3.13;;;2.22;;
68225;SDS011;55045;49.410;11.030;2023-04-23T11:30:31;3.47;;;1.90;;
68225;SDS011;55045;49.410;11.030;2023-04-23T11:33:34;2.55;;;1.80;;
68225;SDS011;55045;49.410;11.030;2023-04-23T11:36:40;2.97;;;2.22;;
68225;SDS011;55045;49.410;11.030;2023-04-23T11:39:44;1.90;;;1.70;;
68225;SDS011;55045;49.410;11.030;2023-04-23T11:42:50;2.40;;;2.20;;
68225;SDS011;55045;49.410;11.030;2023-04-23T11:45:56;2.35;;;1.60;;
68225;SDS011;55045;49.410;11.030;2023-04-23T11:49:09;1.60;;;1.50;;
68225;SDS011;55045;49.410;11.030;2023-04-23T11:52:17;1.63;;;1.30;;
68225;SDS011;55045;49.410;11.030;2023-04-23T11:55:21;1.70;;;1.60;;
68225;SDS011;55045;49.410;11.030;2023-04-23T11:58:25;1.70;;;1.60;;
68225;SDS011;55045;49.410;11.030;2023-04-23T12:01:44;2.72;;;1.60;;
68225;SDS011;55045;49.410;11.030;2023-04-23T12:04:48;2.65;;;1.60;;
68225;SDS011;55045;49.410;11.030;2023-04-23T12:07:52;2.50;;;1.90;;
68225;SDS011;55045;49.410;11.030;2023-04-23T12:10:59;2.97;;;1.58;;
68225;SDS011;55045;49.410;11.030;2023-04-23T12:14:03;1.95;;;1.70;;
68225;SDS011;55045;49.410;11.030;2023-04-23T12:17:09;2.17;;;1.40;;
68225;SDS011;55045;49.410;11.030;2023-04-23T12:20:15;2.40;;;1.40;;
68225;SDS011;55045;49.410;11.030;2023-04-23T12:23:24;1.42;;;1.17;;
68225;SDS011;55045;49.410;11.030;2023-04-23T12:29:32;1.20;;;1.10;;
68225;SDS011;55045;49.410;11.030;2023-04-23T12:32:36;1.20;;;1.10;;
68225;SDS011;55045;49.410;11.030;2023-04-23T12:35:40;1.27;;;1.17;;
68225;SDS011;55045;49.410;11.030;2023-04-23T12:38:44;3.65;;;2.58;;
68225;SDS011;55045;49.410;11.030;2023-04-23T12:41:49;1.48;;;1.23;;
68225;SDS011;55045;49.410;11.030;2023-04-23T12:44:53;1.40;;;1.30;;
68225;SDS011;55045;49.410;11.030;2023-04-23T12:47:57;2.05;;;1.40;;
68225;SDS011;55045;49.410;11.030;2023-04-23T12:51:01;1.77;;;1.50;;
68225;SDS011;55045;49.410;11.030;2023-04-23T12:54:07;1.88;;;1.40;;
68225;SDS011;55045;49.410;11.030;2023-04-23T12:57:12;1.10;;;1.00;;
68225;SDS011;55045;49.410;11.030;2023-04-23T13:00:16;1.35;;;1.25;;
68225;SDS011;55045;49.410;11.030;2023-04-23T13:03:20;1.30;;;1.20;;
68225;SDS011;55045;49.410;11.030;2023-04-23T13:06:24;1.67;;;1.40;;
68225;SDS011;55045;49.410;11.030;2023-04-23T13:09:29;2.05;;;1.40;;
68225;SDS011;55045;49.410;11.030;2023-04-23T13:12:34;1.50;;;1.20;;
68225;SDS011;55045;49.410;11.030;2023-04-23T13:15:38;1.33;;;1.23;;
68225;SDS011;55045;49.410;11.030;2023-04-23T13:18:41;1.25;;;1.15;;
68225;SDS011;55045;49.410;11.030;2023-04-23T13:21:44;1.40;;;1.30;;
68225;SDS011;55045;49.410;11.030;2023-04-23T13:24:47;2.25;;;1.30;;
68225;SDS011;55045;49.410;11.030;2023-04-23T13:27:52;1.42;;;1.33;;
68225;SDS011;55045;49.410;11.030;2023-04-23T13:30:55;1.02;;;1.02;;
68225;SDS011;55045;49.410;11.030;2023-04-23T13:33:58;4.20;;;1.73;;
68225;SDS011;55045;49.410;11.030;2023-04-23T13:37:03;2.50;;;1.27;;
68225;SDS011;55045;49.410;11.030;2023-04-23T13:40:10;2.17;;;1.40;;
68225;SDS011;55045;49.410;11.030;2023-04-23T13:43:15;1.40;;;1.30;;
68225;SDS011;55045;49.410;11.030;2023-04-23T13:46:18;2.92;;;1.65;;
68225;SDS011;55045;49.410;11.030;2023-04-23T13:49:22;1.40;;;1.30;;
68225;SDS011;55045;49.410;11.030;2023-04-23T13:52:25;1.25;;;1.15;;
68225;SDS011;55045;49.410;11.030;2023-04-23T13:55:29;2.45;;;1.35;;
68225;SDS011;55045;49.410;11.030;2023-04-23T13:58:33;1.40;;;1.30;;
68225;SDS011;55045;49.410;11.030;2023-04-23T14:01:37;1.73;;;1.40;;
68225;SDS011;55045;49.410;11.030;2023-04-23T14:04:41;2.08;;;1.65;;
68225;SDS011;55045;49.410;11.030;2023-04-23T14:07:44;1.40;;;1.20;;
68225;SDS011;55045;49.410;11.030;2023-04-23T14:10:48;1.20;;;1.13;;
68225;SDS011;55045;49.410;11.030;2023-04-23T14:13:53;2.05;;;1.30;;
68225;SDS011;55045;49.410;11.030;2023-04-23T14:16:57;1.40;;;1.30;;
68225;SDS011;55045;49.410;11.030;2023-04-23T14:20:00;1.60;;;1.30;;
68225;SDS011;55045;49.410;11.030;2023-04-23T14:26:44;1.58;;;1.48;;
68225;SDS011;55045;49.410;11.030;2023-04-23T14:29:55;1.17;;;1.15;;
68225;SDS011;55045;49.410;11.030;2023-04-23T14:33:00;2.90;;;1.75;;
68225;SDS011;55045;49.410;11.030;2023-04-23T14:36:03;2.00;;;1.20;;
68225;SDS011;55045;49.410;11.030;2023-04-23T14:39:06;2.75;;;1.35;;
68225;SDS011;55045;49.410;11.030;2023-04-23T14:42:10;1.80;;;1.38;;
68225;SDS011;55045;49.410;11.030;2023-04-23T14:45:15;1.55;;;1.20;;
68225;SDS011;55045;49.410;11.030;2023-04-23T14:48:19;2.08;;;1.50;;
68225;SDS011;55045;49.410;11.030;2023-04-23T14:51:22;2.22;;;1.35;;
68225;SDS011;55045;49.410;11.030;2023-04-23T14:54:28;1.40;;;1.30;;
68225;SDS011;55045;49.410;11.030;2023-04-23T14:57:31;2.92;;;1.50;;
68225;SDS011;55045;49.410;11.030;2023-04-23T15:00:36;4.18;;;1.20;;
68225;SDS011;55045;49.410;11.030;2023-04-23T15:03:40;1.13;;;1.10;;
68225;SDS011;55045;49.410;11.030;2023-04-23T15:06:45;1.40;;;1.30;;
68225;SDS011;55045;49.410;11.030;2023-04-23T15:09:48;1.52;;;1.40;;
68225;SDS011;55045;49.410;11.030;2023-04-23T15:13:01;1.70;;;1.35;;
68225;SDS011;55045;49.410;11.030;2023-04-23T15:16:17;1.15;;;1.08;;
68225;SDS011;55045;49.410;11.030;2023-04-23T15:19:45;1.40;;;1.30;;
68225;SDS011;55045;49.410;11.030;2023-04-23T15:22:48;1.88;;;1.10;;
68225;SDS011;55045;49.410;11.030;2023-04-23T15:25:52;2.05;;;1.20;;
68225;SDS011;55045;49.410;11.030;2023-04-23T15:28:56;2.50;;;1.20;;
68225;SDS011;55045;49.410;11.030;2023-04-23T15:34:50;2.75;;;1.55;;
68225;SDS011;55045;49.410;11.030;2023-04-23T15:37:53;1.80;;;1.40;;
68225;SDS011;55045;49.410;11.030;2023-04-23T15:40:57;1.98;;;1.50;;
68225;SDS011;55045;49.410;11.030;2023-04-23T15:44:02;1.35;;;1.23;;
68225;SDS011;55045;49.410;11.030;2023-04-23T15:47:05;1.30;;;1.20;;
68225;SDS011;55045;49.410;11.030;2023-04-23T15:50:10;1.50;;;1.40;;
68225;SDS011;55045;49.410;11.030;2023-04-23T15:53:14;1.23;;;1.13;;
68225;SDS011;55045;49.410;11.030;2023-04-23T15:56:20;2.08;;;1.27;;
68225;SDS011;55045;49.410;11.030;2023-04-23T15:59:24;2.72;;;2.00;;
68225;SDS011;55045;49.410;11.030;2023-04-23T16:02:27;1.92;;;1.15;;
68225;SDS011;55045;49.410;11.030;2023-04-23T16:05:35;1.48;;;1.38;;
68225;SDS011;55045;49.410;11.030;2023-04-23T16:08:38;2.72;;;1.60;;
68225;SDS011;55045;49.410;11.030;2023-04-23T16:11:41;2.25;;;1.67;;
68225;SDS011;55045;49.410;11.030;2023-04-23T16:14:45;1.67;;;1.50;;
68225;SDS011;55045;49.410;11.030;2023-04-23T16:17:48;1.75;;;1.40;;
68225;SDS011;55045;49.410;11.030;2023-04-23T16:20:54;1.95;;;1.30;;
68225;SDS011;55045;49.410;11.030;2023-04-23T16:23:59;1.80;;;1.52;;
68225;SDS011;55045;49.410;11.030;2023-04-23T16:27:02;2.05;;;1.17;;
68225;SDS011;55045;49.410;11.030;2023-04-23T16:30:07;4.65;;;2.88;;
68225;SDS011;55045;49.410;11.030;2023-04-23T16:33:11;2.38;;;1.45;;
68225;SDS011;55045;49.410;11.030;2023-04-23T16:36:16;2.42;;;1.92;;
68225;SDS011;55045;49.410;11.030;2023-04-23T16:39:20;1.95;;;1.75;;
68225;SDS011;55045;49.410;11.030;2023-04-23T16:42:23;5.13;;;1.95;;
68225;SDS011;55045;49.410;11.030;2023-04-23T16:45:27;4.55;;;2.30;;
68225;SDS011;55045;49.410;11.030;2023-04-23T16:48:30;1.98;;;1.75;;
68225;SDS011;55045;49.410;11.030;2023-04-23T16:51:35;3.05;;;1.70;;
68225;SDS011;55045;49.410;11.030;2023-04-23T16:54:38;4.18;;;1.92;;
68225;SDS011;55045;49.410;11.030;2023-04-23T16:57:42;2.20;;;1.90;;
68225;SDS011;55045;49.410;11.030;2023-04-23T17:00:45;4.13;;;2.70;;
68225;SDS011;55045;49.410;11.030;2023-04-23T17:03:49;4.68;;;2.80;;
68225;SDS011;55045;49.410;11.030;2023-04-23T17:06:54;3.33;;;2.10;;
68225;SDS011;55045;49.410;11.030;2023-04-23T17:09:58;3.67;;;2.50;;
68225;SDS011;55045;49.410;11.030;2023-04-23T17:13:03;7.22;;;2.63;;
68225;SDS011;55045;49.410;11.030;2023-04-23T17:16:06;3.15;;;2.38;;
68225;SDS011;55045;49.410;11.030;2023-04-23T17:19:10;2.50;;;2.30;;
68225;SDS011;55045;49.410;11.030;2023-04-23T17:22:14;4.28;;;2.30;;
68225;SDS011;55045;49.410;11.030;2023-04-23T17:25:18;4.85;;;2.10;;
68225;SDS011;55045;49.410;11.030;2023-04-23T17:28:22;2.72;;;1.90;;
68225;SDS011;55045;49.410;11.030;2023-04-23T17:31:25;1.92;;;1.60;;
68225;SDS011;55045;49.410;11.030;2023-04-23T17:34:28;2.20;;;1.30;;
68225;SDS011;55045;49.410;11.030;2023-04-23T17:37:34;3.90;;;1.60;;
68225;SDS011;55045;49.410;11.030;2023-04-23T17:40:37;2.63;;;1.80;;
68225;SDS011;55045;49.410;11.030;2023-04-23T17:43:41;2.60;;;1.90;;
68225;SDS011;55045;49.410;11.030;2023-04-23T17:46:44;3.00;;;2.03;;
68225;SDS011;55045;49.410;11.030;2023-04-23T17:49:47;1.75;;;1.65;;
68225;SDS011;55045;49.410;11.030;2023-04-23T17:52:52;1.80;;;1.70;;
68225;SDS011;55045;49.410;11.030;2023-04-23T17:55:56;2.30;;;1.50;;
68225;SDS011;55045;49.410;11.030;2023-04-23T17:59:04;4.55;;;1.65;;
68225;SDS011;55045;49.410;11.030;2023-04-23T18:02:07;2.08;;;1.52;;
68225;SDS011;55045;49.410;11.030;2023-04-23T18:05:12;4.07;;;1.63;;
68225;SDS011;55045;49.410;11.030;2023-04-23T18:08:18;1.88;;;1.65;;
68225;SDS011;55045;49.410;11.030;2023-04-23T18:11:22;2.42;;;1.58;;
68225;SDS011;55045;49.410;11.030;2023-04-23T18:14:26;4.53;;;3.25;;
68225;SDS011;55045;49.410;11.030;2023-04-23T18:17:29;5.70;;;2.67;;
68225;SDS011;55045;49.410;11.030;2023-04-23T18:20:32;3.78;;;1.88;;
68225;SDS011;55045;49.410;11.030;2023-04-23T18:23:40;2.13;;;1.92;;
68225;SDS011;55045;49.410;11.030;2023-04-23T18:26:43;2.17;;;1.90;;
68225;SDS011;55045;49.410;11.030;2023-04-23T18:29:49;2.42;;;2.17;;
68225;SDS011;55045;49.410;11.030;2023-04-23T18:32:58;3.78;;;2.22;;